Startpagina
METAR-TAF:

METAR-TAF

Vliegvelden :

Flughafen Linz

Linz, Oostenrijk

breedte: 48-14N, lengte: 014-11E, hoogte: 298 m

Actueel weer

Dit bericht is 23 minuten geleden gemaakt, om 17:50 UTC
Wind 6 kt uit het westen
Temperatuur 17°C
Vochtigheid 36%
Druk 1021 hPa
Zicht 10 km of meer

METAR: LOWL 091750Z AUTO 28006KT 9999 NCD 17/02 Q1021 NOSIG

Tijdstip: 20:13 (18:13 UTC)

Verwachting

Dit bericht is 58 minuten geleden gemaakt, om 17:15 UTC
Verwachting geldig van 09 om 18 UTC tot 10 om 18 UTC
Wind 3 kt uit het westzuidwesten
Zicht 10 km of meer
geen wolken onder 1500 m en geen cumulonimbus

TAF: LOWL 091715Z 0918/1018 25003KT CAVOK TX21/1015Z TN07/1004Z

Waarnemingen en weersverwachtingen van meer dan 4000 vliegvelden (METAR en TAF).

De beschikbare stations zijn de gele en rode punten op de kaart.

Ga met uw muis naar het station om de naam te zien.

Klik dan om waarnemingen en weersverwachtingen te zien.

kaart wijzigen: klik op de groene knoppen met een zwart kruis om in te zoomen, op de groene knop met een streepje om uit te zoomen of op de groene pijlen voor aangrenzende kaarten.


METAR-TAF: